Time;durP1;ratioP1;P1;durP2;ratioP2;P2;SDS_P1;SDS_P2;PMS_P1;PMS_P2;Temp;Humidity;BMP_temperature;BMP_pressure;BME280_temperature;BME280_humidity;BME280_pressure;Samples;Min_cycle;Max_cycle;Signal;HPM_P1;HPM_P2
2023/01/10 00:00:06;;;;;;;;;5.00;4.33;;;;;6.57;100.00;101408.88;5069061;27;45400;-84
2023/01/10 00:02:31;;;;;;;;;3.00;3.00;;;;;6.55;100.00;101416.06;5097773;27;45645;-84
2023/01/10 00:04:57;;;;;;;;;6.00;3.33;;;;;6.56;100.00;101417.78;5096787;27;45537;-84
2023/01/10 00:07:22;;;;;;;;;7.00;6.00;;;;;6.61;100.00;101430.59;5070096;28;45405;-85
2023/01/10 00:09:47;;;;;;;;;4.00;3.33;;;;;6.65;100.00;101435.44;5069099;27;45279;-84
2023/01/10 00:14:57;;;;;;;;;6.00;5.00;;;;;6.59;100.00;101433.34;5094913;27;45380;-85
2023/01/10 00:17:22;;;;;;;;;4.67;4.00;;;;;6.65;100.00;101450.47;5084867;27;45816;-83
2023/01/10 00:19:47;;;;;;;;;8.67;4.00;;;;;6.59;100.00;101437.78;5091757;27;45493;-84
2023/01/10 00:22:13;;;;;;;;;3.00;3.00;;;;;6.61;100.00;101441.16;5079630;28;45266;-84
2023/01/10 00:24:38;;;;;;;;;8.67;6.00;;;;;6.55;100.00;101437.19;5061002;28;48070;-85
2023/01/10 00:27:03;;;;;;;;;4.00;3.00;;;;;6.50;100.00;101442.06;5061499;28;45154;-84
2023/01/10 00:29:34;;;;;;;;;3.00;3.00;;;;;6.46;100.00;101448.56;5061492;28;45399;-85
2023/01/10 00:31:59;;;;;;;;;6.00;4.67;;;;;6.43;100.00;101454.91;5061244;28;47386;-84
2023/01/10 00:34:25;;;;;;;;;5.33;4.33;;;;;6.39;100.00;101457.00;5061077;28;47038;-85
2023/01/10 00:36:51;;;;;;;;;5.33;5.33;;;;;6.49;100.00;101483.47;5079725;28;45257;-85
2023/01/10 00:39:19;;;;;;;;;8.33;5.00;;;;;6.44;100.00;101490.94;5061078;28;45594;-85
2023/01/10 00:44:29;;;;;;;;;10.67;7.00;;;;;6.34;100.00;101482.94;5078953;28;45747;-83
2023/01/10 00:46:54;;;;;;;;;3.67;3.67;;;;;6.27;100.00;101489.69;5061057;28;45290;-85
2023/01/10 00:49:20;;;;;;;;;4.00;3.33;;;;;6.22;100.00;101484.78;5079693;28;45325;-84
2023/01/10 00:51:45;;;;;;;;;7.00;5.00;;;;;6.19;100.00;101488.53;5079459;28;45535;-84
2023/01/10 00:54:12;;;;;;;;;8.00;7.33;;;;;6.22;100.00;101494.53;5064665;28;47263;-84
2023/01/10 00:56:38;;;;;;;;;5.67;5.33;;;;;6.10;100.00;101491.94;5082841;28;45657;-84
2023/01/10 00:59:04;;;;;;;;;3.33;3.33;;;;;6.14;100.00;101500.44;5082986;28;45297;-85
2023/01/10 01:01:29;;;;;;;;;4.67;4.00;;;;;6.11;100.00;101495.41;5082735;28;45694;-85
2023/01/10 01:03:55;;;;;;;;;1.00;1.00;;;;;6.06;100.00;101498.44;5082603;28;45202;-85
2023/01/10 01:06:20;;;;;;;;;6.67;6.00;;;;;6.01;100.00;101503.19;5069954;27;45343;-84
2023/01/10 01:08:46;;;;;;;;;5.67;4.00;;;;;6.00;100.00;101512.09;5101858;27;45343;-84
2023/01/10 01:11:11;;;;;;;;;5.33;4.67;;;;;5.89;100.00;101494.47;5103096;27;45550;-85
2023/01/10 01:13:37;;;;;;;;;4.00;4.00;;;;;5.86;100.00;101497.38;5103013;27;45532;-83
2023/01/10 01:16:02;;;;;;;;;5.00;4.00;;;;;5.85;100.00;101504.47;5101513;27;45252;-83
2023/01/10 01:18:27;;;;;;;;;6.33;5.00;;;;;5.85;100.00;101520.28;5103224;27;45143;-85
2023/01/10 01:20:55;;;;;;;;;5.67;3.33;;;;;5.78;100.00;101516.47;5103036;27;45388;-84
2023/01/10 01:23:21;;;;;;;;;4.00;3.00;;;;;5.78;100.00;101522.56;5102897;27;45605;-84
2023/01/10 01:25:51;;;;;;;;;3.67;3.67;;;;;5.72;100.00;101532.78;5102821;27;45337;-84
2023/01/10 01:28:16;;;;;;;;;4.67;4.00;;;;;5.59;100.00;101523.22;5101482;27;45343;-84
2023/01/10 01:30:42;;;;;;;;;5.00;3.00;;;;;5.61;100.00;101542.41;5102507;27;45306;-84
2023/01/10 01:33:07;;;;;;;;;4.00;4.00;;;;;5.47;100.00;101537.34;5102455;27;45273;-84
2023/01/10 01:35:33;;;;;;;;;4.00;2.33;;;;;5.43;100.00;101539.41;5102910;27;45279;-84
2023/01/10 01:37:58;;;;;;;;;4.67;4.67;;;;;5.39;100.00;101544.06;5101487;27;45325;-84
2023/01/10 01:40:24;;;;;;;;;4.67;4.67;;;;;5.38;100.00;101552.94;5102598;27;45578;-85
2023/01/10 01:42:54;;;;;;;;;7.00;4.00;;;;;5.23;100.00;101539.16;5102465;27;45457;-84
2023/01/10 01:45:33;;;;;;;;;3.33;3.33;;;;;5.33;100.00;101562.19;5102323;27;45180;-84
2023/01/10 01:48:24;;;;;;;;;4.67;3.67;;;;;5.30;100.00;101563.28;5102762;27;45313;-84
2023/01/10 01:51:12;;;;;;;;;3.00;2.00;;;;;5.31;100.00;101564.94;5092968;27;45165;-84
2023/01/10 01:53:45;;;;;;;;;3.67;3.00;;;;;5.32;100.00;101563.16;5102510;27;45479;-84
2023/01/10 01:56:36;;;;;;;;;3.67;3.67;;;;;5.34;100.00;101571.75;5084106;27;46143;-84
2023/01/10 01:59:24;;;;;;;;;3.67;3.67;;;;;5.29;100.00;101562.41;5084125;27;45325;-85
2023/01/10 02:01:53;;;;;;;;;3.67;3.67;;;;;5.28;100.00;101557.25;5101251;27;45550;-84
2023/01/10 02:04:23;;;;;;;;;5.00;4.00;;;;;5.35;100.00;101557.63;5083657;27;47222;-85
2023/01/10 02:06:52;;;;;;;;;4.33;4.33;;;;;5.40;100.00;101560.75;5102097;27;45298;-85
2023/01/10 02:09:25;;;;;;;;;3.33;3.00;;;;;5.40;100.00;101563.38;5083919;27;45287;-84
2023/01/10 02:11:51;;;;;;;;;4.00;4.00;;;;;5.42;100.00;101579.94;5083710;27;47484;-85
2023/01/10 02:14:18;;;;;;;;;5.00;4.67;;;;;5.33;100.00;101565.66;5100663;27;46872;-84
2023/01/10 02:16:43;;;;;;;;;4.67;4.00;;;;;5.27;100.00;101561.69;5101966;27;45220;-84
2023/01/10 02:19:37;;;;;;;;;6.00;4.00;;;;;5.36;100.00;101583.84;5083800;27;45668;-85
2023/01/10 02:22:26;;;;;;;;;2.67;2.67;;;;;5.38;100.00;101578.47;5083106;27;47473;-84
2023/01/10 02:25:19;;;;;;;;;4.00;4.00;;;;;5.29;100.00;101572.97;5101777;27;45372;-84
2023/01/10 02:27:55;;;;;;;;;3.67;3.33;;;;;5.29;100.00;101570.31;5100163;27;45313;-83
2023/01/10 02:30:57;;;;;;;;;3.00;3.00;;;;;5.37;100.00;101588.19;5100430;27;45232;-84
2023/01/10 02:33:30;;;;;;;;;4.67;4.33;;;;;5.35;100.00;101592.72;5101649;27;45643;-85
2023/01/10 02:36:08;;;;;;;;;7.00;6.67;;;;;5.37;100.00;101588.19;5101580;27;45493;-84
2023/01/10 02:38:48;;;;;;;;;4.33;3.67;;;;;5.39;100.00;101612.63;5101799;27;45310;-84
2023/01/10 02:41:34;;;;;;;;;4.00;4.00;;;;;5.39;100.00;101611.81;5101998;27;45345;-84
2023/01/10 02:44:10;;;;;;;;;3.00;3.00;;;;;5.34;100.00;101603.41;5101266;27;45272;-84
2023/01/10 02:46:38;;;;;;;;;8.00;7.00;;;;;5.37;100.00;101606.66;5099837;27;48333;-84
2023/01/10 02:49:04;;;;;;;;;3.00;3.00;;;;;5.35;100.00;101600.66;5101556;27;45158;-84
2023/01/10 02:51:32;;;;;;;;;3.00;2.00;;;;;5.34;100.00;101600.75;5101684;27;45360;-84
2023/01/10 02:54:06;;;;;;;;;3.00;3.00;;;;;5.36;100.00;101612.84;5100095;27;47087;-84
2023/01/10 02:56:44;;;;;;;;;4.67;3.00;;;;;5.30;100.00;101624.72;5101403;27;45299;-84
2023/01/10 02:59:32;;;;;;;;;5.67;4.33;;;;;5.27;100.00;101629.41;5101342;27;45274;-84
2023/01/10 03:02:31;;;;;;;;;2.00;2.00;;;;;5.25;100.00;101641.84;5070181;27;45414;-85
2023/01/10 03:05:17;;;;;;;;;3.00;3.00;;;;;5.08;100.00;101625.53;5101179;27;45396;-84
2023/01/10 03:07:51;;;;;;;;;3.33;2.33;;;;;5.21;100.00;101653.59;5082591;27;47200;-84
2023/01/10 03:10:29;;;;;;;;;3.00;3.00;;;;;5.09;100.00;101640.38;5082958;27;45661;-84
2023/01/10 03:13:01;;;;;;;;;4.33;3.00;;;;;5.21;100.00;101656.22;5099574;27;45299;-85
2023/01/10 03:15:31;;;;;;;;;4.33;4.00;;;;;5.12;100.00;101629.59;5098774;27;46172;-84
2023/01/10 03:18:01;;;;;;;;;2.00;2.00;;;;;5.22;100.00;101642.09;5101088;27;45258;-84
2023/01/10 03:20:29;;;;;;;;;3.00;3.00;;;;;5.24;100.00;101646.28;5101020;27;45435;-84
2023/01/10 03:22:55;;;;;;;;;4.33;3.00;;;;;5.22;100.00;101640.28;5101145;27;45285;-84
2023/01/10 03:25:25;;;;;;;;;7.00;5.33;;;;;5.24;100.00;101637.53;5100895;27;45495;-85
2023/01/10 03:27:57;;;;;;;;;8.33;3.67;;;;;5.05;100.00;101616.06;5082376;27;47586;-84
2023/01/10 03:30:34;;;;;;;;;3.00;3.00;;;;;5.12;100.00;101620.88;5099088;27;45333;-83
2023/01/10 03:33:00;;;;;;;;;1.67;1.67;;;;;5.21;100.00;101648.31;5100515;27;45341;-84
2023/01/10 03:35:57;;;;;;;;;3.00;2.00;;;;;5.16;100.00;101651.28;5099320;27;45288;-85
2023/01/10 03:39:01;;;;;;;;;4.00;3.00;;;;;5.17;100.00;101656.44;5099380;27;45479;-85
2023/01/10 03:41:51;;;;;;;;;3.00;3.00;;;;;5.15;100.00;101660.16;5097858;27;45344;-84
2023/01/10 03:44:45;;;;;;;;;2.33;2.33;;;;;5.15;100.00;101668.06;5080599;27;45274;-84
2023/01/10 03:47:35;;;;;;;;;7.33;3.00;;;;;5.17;100.00;101666.16;5080412;27;47216;-83
2023/01/10 03:50:22;;;;;;;;;3.00;3.00;;;;;5.08;100.00;101646.59;5099189;27;45755;-84
2023/01/10 03:52:48;;;;;;;;;4.33;4.33;;;;;5.08;100.00;101645.75;5099166;27;45344;-84
2023/01/10 03:55:18;;;;;;;;;3.00;2.00;;;;;5.20;100.00;101676.47;5080767;27;45550;-84
2023/01/10 03:57:44;;;;;;;;;5.33;4.33;;;;;5.21;100.00;101678.13;5080599;27;46090;-84
2023/01/10 04:00:11;;;;;;;;;3.33;3.33;;;;;5.24;100.00;101685.81;5098944;27;45356;-84
2023/01/10 04:02:37;;;;;;;;;2.00;2.00;;;;;5.25;100.00;101673.47;5080398;27;46341;-84
2023/01/10 04:05:04;;;;;;;;;2.00;2.00;;;;;5.27;100.00;101690.84;5098923;27;45320;-84
2023/01/10 04:07:29;;;;;;;;;3.00;2.00;;;;;5.25;100.00;101694.56;5080402;27;46144;-83
2023/01/10 04:09:54;;;;;;;;;4.33;3.00;;;;;5.07;100.00;101660.75;5097419;27;47104;-84
2023/01/10 04:12:20;;;;;;;;;3.33;3.00;;;;;5.27;100.00;101701.41;5080685;27;45187;-84
2023/01/10 04:14:46;;;;;;;;;4.67;4.67;;;;;5.21;100.00;101679.94;5099067;27;45212;-84
2023/01/10 04:17:13;;;;;;;;;3.33;3.00;;;;;5.34;100.00;101690.41;5097432;27;46498;-84
2023/01/10 04:19:38;;;;;;;;;7.33;4.00;;;;;5.35;100.00;101689.44;5098921;27;45499;-84
2023/01/10 04:22:07;;;;;;;;;1.67;1.67;;;;;5.34;100.00;101685.97;5080375;27;45351;-84
2023/01/10 04:24:32;;;;;;;;;3.00;3.00;;;;;5.26;100.00;101670.72;5098990;27;45287;-85
2023/01/10 04:26:57;;;;;;;;;5.00;4.00;;;;;5.32;100.00;101681.78;5099181;27;45501;-85
2023/01/10 04:29:23;;;;;;;;;4.00;3.00;;;;;5.32;100.00;101687.88;5102866;27;45323;-85
2023/01/10 04:31:48;;;;;;;;;3.00;2.00;;;;;5.39;100.00;101691.72;5102832;27;45313;-84
2023/01/10 04:34:14;;;;;;;;;2.67;2.67;;;;;5.34;100.00;101674.56;5061926;27;1172123;-84
2023/01/10 04:36:40;;;;;;;;;4.67;2.33;;;;;5.34;100.00;101666.66;5085437;27;45754;-85
2023/01/10 04:39:06;;;;;;;;;6.33;3.00;;;;;5.40;100.00;101669.69;5103713;27;45620;-85
2023/01/10 04:41:31;;;;;;;;;4.00;2.00;;;;;5.35;100.00;101665.69;5102458;27;45292;-84
2023/01/10 04:43:56;;;;;;;;;5.67;2.33;;;;;5.38;100.00;101670.75;5102069;27;45704;-84
2023/01/10 04:46:22;;;;;;;;;3.33;2.67;;;;;5.33;100.00;101668.47;5084998;27;45778;-84
2023/01/10 04:48:47;;;;;;;;;3.00;3.00;;;;;5.45;100.00;101677.25;5085140;27;46850;-84
2023/01/10 04:51:12;;;;;;;;;3.00;3.00;;;;;5.40;100.00;101669.69;5102334;27;45315;-84
2023/01/10 04:53:38;;;;;;;;;3.00;2.67;;;;;5.43;100.00;101677.38;5085101;27;45689;-85
2023/01/10 04:56:08;;;;;;;;;6.00;3.33;;;;;5.55;100.00;101696.69;5085117;27;45957;-84
2023/01/10 04:58:35;;;;;;;;;3.33;2.33;;;;;5.56;100.00;101695.72;5103333;27;45484;-85
2023/01/10 05:01:12;;;;;;;;;3.00;2.67;;;;;5.65;100.00;101703.88;5084759;27;45268;-84
2023/01/10 05:03:38;;;;;;;;;3.67;3.00;;;;;5.66;100.00;101703.75;5084719;27;45228;-84
2023/01/10 05:06:04;;;;;;;;;3.00;3.00;;;;;5.64;100.00;101689.88;5101817;27;46274;-84
2023/01/10 05:08:29;;;;;;;;;2.33;2.00;;;;;5.62;100.00;101677.72;5084714;27;47295;-85
2023/01/10 05:10:55;;;;;;;;;4.33;2.33;;;;;5.71;100.00;101684.13;5103293;27;45333;-84
2023/01/10 05:13:20;;;;;;;;;1.33;1.33;;;;;5.79;100.00;101693.13;5102111;27;45356;-85
2023/01/10 05:15:45;;;;;;;;;3.33;3.33;;;;;5.78;100.00;101680.88;5102973;27;45259;-84
2023/01/10 05:18:11;;;;;;;;;4.00;3.00;;;;;5.75;100.00;101686.38;5103082;27;45324;-84
2023/01/10 05:20:36;;;;;;;;;4.00;4.00;;;;;5.79;100.00;101684.34;5103081;27;45294;-84
2023/01/10 05:23:02;;;;;;;;;2.00;2.00;;;;;5.77;100.00;101679.19;5084558;27;45234;-83
2023/01/10 05:25:27;;;;;;;;;4.00;3.00;;;;;5.86;100.00;101682.91;5101640;27;46176;-84
2023/01/10 05:27:52;;;;;;;;;4.33;4.33;;;;;5.83;100.00;101667.31;5101380;27;47146;-84
2023/01/10 05:30:18;;;;;;;;;4.00;3.00;;;;;5.84;100.00;101678.72;5102860;27;45285;-85
2023/01/10 05:32:43;;;;;;;;;2.00;2.00;;;;;5.83;100.00;101669.13;5102911;27;45470;-84
2023/01/10 05:35:09;;;;;;;;;4.00;4.00;;;;;5.92;100.00;101690.34;5101400;27;45836;-85
2023/01/10 05:37:35;;;;;;;;;4.00;3.67;;;;;5.77;100.00;101658.09;5101206;27;47325;-84
2023/01/10 05:40:00;;;;;;;;;3.00;3.00;;;;;5.87;100.00;101675.84;5101159;27;45239;-84
2023/01/10 05:42:25;;;;;;;;;4.00;3.00;;;;;5.89;100.00;101676.53;5102907;27;45210;-84
2023/01/10 05:44:51;;;;;;;;;3.00;2.00;;;;;5.91;100.00;101679.91;5101026;27;46323;-84
2023/01/10 05:47:16;;;;;;;;;3.33;2.33;;;;;5.81;100.00;101661.34;5102428;27;45193;-85
2023/01/10 05:49:41;;;;;;;;;3.00;3.00;;;;;5.93;100.00;101667.44;5102757;27;45145;-84
2023/01/10 05:52:07;;;;;;;;;6.33;2.00;;;;;6.03;100.00;101686.88;5102655;27;45165;-85
2023/01/10 05:54:32;;;;;;;;;3.00;3.00;;;;;6.01;100.00;101680.00;5102568;27;45379;-84
2023/01/10 05:56:57;;;;;;;;;5.00;3.00;;;;;6.00;100.00;101681.84;5101162;27;47610;-84
2023/01/10 05:59:23;;;;;;;;;5.00;3.00;;;;;5.91;100.00;101669.34;5102547;27;45223;-84
2023/01/10 06:01:48;;;;;;;;;4.33;3.67;;;;;6.03;100.00;101678.09;5102433;27;45192;-84
2023/01/10 06:04:13;;;;;;;;;3.00;3.00;;;;;6.07;100.00;101684.84;5102403;27;45201;-84
2023/01/10 06:06:39;;;;;;;;;4.67;3.33;;;;;6.06;100.00;101672.63;5102179;27;45204;-85
2023/01/10 06:09:04;;;;;;;;;4.67;3.67;;;;;6.08;100.00;101672.50;5100933;27;45384;-84
2023/01/10 06:11:30;;;;;;;;;5.67;3.00;;;;;6.08;100.00;101675.16;5102486;27;45312;-84
2023/01/10 06:13:57;;;;;;;;;4.00;3.00;;;;;6.15;100.00;101686.88;5102202;27;45333;-84
2023/01/10 06:16:23;;;;;;;;;3.00;3.00;;;;;6.22;100.00;101697.81;5083487;27;47049;-84
2023/01/10 06:18:48;;;;;;;;;3.00;3.00;;;;;6.09;100.00;101676.81;5102222;27;45301;-85
2023/01/10 06:21:14;;;;;;;;;3.00;3.00;;;;;6.23;100.00;101684.50;5083942;27;45390;-84
2023/01/10 06:23:39;;;;;;;;;2.00;2.00;;;;;6.04;100.00;101649.00;5102044;27;45350;-84
2023/01/10 06:26:05;;;;;;;;;3.00;3.00;;;;;6.00;100.00;101636.13;5100778;27;46870;-85
2023/01/10 06:28:30;;;;;;;;;3.00;2.33;;;;;6.25;100.00;101681.69;5101939;27;45308;-85
2023/01/10 06:30:55;;;;;;;;;2.67;2.33;;;;;6.42;100.00;101694.41;5100681;27;45234;-84
2023/01/10 06:33:21;;;;;;;;;4.33;3.67;;;;;6.32;100.00;101699.59;5101900;27;45260;-84
2023/01/10 06:35:47;;;;;;;;;4.67;4.00;;;;;6.37;100.00;101704.50;5101866;27;46330;-84
2023/01/10 06:38:13;;;;;;;;;2.00;2.00;;;;;6.29;100.00;101704.28;5100600;27;45321;-84
2023/01/10 06:40:38;;;;;;;;;6.67;3.67;;;;;6.20;100.00;101687.38;5083557;27;45326;-84
2023/01/10 06:43:03;;;;;;;;;7.33;3.00;;;;;6.16;100.00;101691.19;5100995;27;45214;-83
2023/01/10 06:45:29;;;;;;;;;2.33;2.00;;;;;6.08;100.00;101686.56;5098515;27;45552;-84
2023/01/10 06:47:54;;;;;;;;;4.00;2.33;;;;;6.19;100.00;101691.81;5101644;27;45331;-83
2023/01/10 06:50:20;;;;;;;;;3.67;3.67;;;;;6.18;100.00;101691.94;5100831;27;45338;-82
2023/01/10 06:52:53;;;;;;;;;4.00;4.00;;;;;6.08;100.00;101680.41;5101634;27;45376;-82
2023/01/10 06:55:18;;;;;;;;;4.00;3.00;;;;;6.14;100.00;101693.97;5101470;27;45418;-83
2023/01/10 06:57:43;;;;;;;;;7.67;7.67;;;;;6.11;100.00;101696.03;5101239;27;45204;-82
2023/01/10 07:00:10;;;;;;;;;14.33;10.33;;;;;6.05;100.00;101694.72;5101310;27;45152;-81
2023/01/10 07:02:36;;;;;;;;;5.00;4.33;;;;;6.06;100.00;101699.00;5082889;27;46236;-81
2023/01/10 07:05:01;;;;;;;;;8.33;5.67;;;;;6.04;100.00;101695.66;5101091;27;45330;-81
2023/01/10 07:07:27;;;;;;;;;5.67;5.67;;;;;6.08;100.00;101706.81;5079901;27;45360;-80
2023/01/10 07:09:52;;;;;;;;;3.33;3.00;;;;;6.08;100.00;101699.75;5096580;27;45402;-79
2023/01/10 07:12:17;;;;;;;;;4.33;4.00;;;;;5.94;100.00;101672.59;5095272;27;45643;-81
2023/01/10 07:14:43;;;;;;;;;3.67;3.67;;;;;5.97;100.00;101684.72;5082418;27;46992;-80
2023/01/10 07:17:08;;;;;;;;;3.00;2.33;;;;;6.00;100.00;101702.94;5101000;27;45319;-81
2023/01/10 07:19:33;;;;;;;;;3.00;3.00;;;;;5.98;100.00;101698.75;5101157;27;45324;-80
2023/01/10 07:21:59;;;;;;;;;3.00;3.00;;;;;6.02;100.00;101708.09;5101028;27;45523;-80
2023/01/10 07:24:25;;;;;;;;;3.00;3.00;;;;;5.92;100.00;101686.88;5100887;27;45284;-80
2023/01/10 07:26:54;;;;;;;;;4.00;3.00;;;;;6.01;100.00;101701.13;5082729;27;45289;-81
2023/01/10 07:29:19;;;;;;;;;3.33;3.00;;;;;5.98;100.00;101693.47;5100995;27;45310;-80
2023/01/10 07:31:44;;;;;;;;;4.67;4.00;;;;;5.97;100.00;101694.41;5095925;27;45374;-80
2023/01/10 07:34:10;;;;;;;;;6.67;5.00;;;;;5.92;100.00;101676.31;5084472;27;45318;-80
2023/01/10 07:36:36;;;;;;;;;9.67;4.67;;;;;5.89;100.00;101672.13;5094502;27;45356;-80
2023/01/10 07:39:01;;;;;;;;;4.00;4.00;;;;;6.05;100.00;101686.78;5083463;28;45394;-81
2023/01/10 07:41:26;;;;;;;;;4.33;3.67;;;;;5.90;100.00;101657.94;5082397;28;45555;-80
2023/01/10 07:43:52;;;;;;;;;7.00;4.00;;;;;5.90;100.00;101644.75;5080183;28;48298;-80
2023/01/10 07:46:17;;;;;;;;;6.33;4.33;;;;;6.08;100.00;101672.50;5087260;27;45494;-79
2023/01/10 07:48:45;;;;;;;;;3.67;3.67;;;;;6.03;100.00;101671.03;5101514;27;45377;-79
2023/01/10 07:51:10;;;;;;;;;5.67;5.67;;;;;6.08;100.00;101673.34;5103843;27;45404;-80
2023/01/10 07:53:36;;;;;;;;;5.33;3.67;;;;;6.03;100.00;101664.91;5104525;27;45314;-78
2023/01/10 07:56:02;;;;;;;;;9.00;8.00;;;;;6.02;100.00;101671.16;5100883;27;45235;-77
2023/01/10 07:58:28;;;;;;;;;4.00;4.00;;;;;6.11;100.00;101678.34;5100410;27;45309;-78
2023/01/10 08:00:58;;;;;;;;;5.00;5.00;;;;;6.19;100.00;101685.69;5104314;27;45643;-79
2023/01/10 08:03:23;;;;;;;;;7.67;6.00;;;;;6.19;100.00;101673.31;5106704;27;45412;-80
2023/01/10 08:05:49;;;;;;;;;11.00;10.33;;;;;6.13;100.00;101670.31;5105962;27;45259;-80
2023/01/10 08:08:16;;;;;;;;;4.67;4.67;;;;;6.20;100.00;101687.38;5097491;27;45338;-80
2023/01/10 08:10:41;;;;;;;;;6.33;6.33;;;;;6.12;100.00;101680.06;5098952;27;45523;-80
2023/01/10 08:13:06;;;;;;;;;7.00;4.33;;;;;6.22;100.00;101697.81;5100035;27;45295;-79
2023/01/10 08:15:32;;;;;;;;;7.67;6.33;;;;;6.22;100.00;101679.34;5101648;27;45250;-79
2023/01/10 08:18:01;;;;;;;;;5.33;5.00;;;;;6.25;100.00;101690.47;5103501;27;45297;-80
2023/01/10 08:20:27;;;;;;;;;8.00;8.00;;;;;6.25;100.00;101689.63;5098246;27;45562;-80
2023/01/10 08:22:52;;;;;;;;;8.67;5.33;;;;;6.19;100.00;101678.59;5084792;27;47327;-80
2023/01/10 08:25:18;;;;;;;;;7.67;5.33;;;;;6.22;100.00;101693.34;5099175;27;46120;-80
2023/01/10 08:27:43;;;;;;;;;9.00;6.67;;;;;6.31;100.00;101697.91;5090739;27;45403;-77
2023/01/10 08:30:09;;;;;;;;;8.33;8.33;;;;;6.29;100.00;101694.53;5097831;27;45622;-78
2023/01/10 08:32:34;;;;;;;;;12.00;8.00;;;;;6.28;100.00;101686.75;5103106;27;45327;-79
2023/01/10 08:35:00;;;;;;;;;6.00;6.00;;;;;6.34;100.00;101686.25;5106208;27;45266;-78
2023/01/10 08:37:25;;;;;;;;;9.00;9.00;;;;;6.34;100.00;101690.72;5102117;27;45389;-79
2023/01/10 08:39:50;;;;;;;;;9.00;7.67;;;;;6.30;100.00;101679.56;5100901;27;45401;-80
2023/01/10 08:42:16;;;;;;;;;5.67;5.67;;;;;6.38;100.00;101682.41;5103026;27;45185;-79
2023/01/10 08:44:41;;;;;;;;;11.33;8.67;;;;;6.36;100.00;101676.41;5101979;27;45249;-80
2023/01/10 08:47:07;;;;;;;;;10.67;6.00;;;;;6.47;100.00;101701.13;5085798;27;45315;-82
2023/01/10 08:49:32;;;;;;;;;8.67;6.00;;;;;6.47;100.00;101693.19;5101166;27;47250;-80
2023/01/10 08:51:58;;;;;;;;;6.33;4.00;;;;;6.53;100.00;101684.78;5100983;27;46143;-80
2023/01/10 08:54:23;;;;;;;;;8.67;8.00;;;;;6.41;100.00;101665.50;5107629;27;45316;-80
2023/01/10 08:56:48;;;;;;;;;6.67;6.67;;;;;6.52;100.00;101670.72;5110304;27;45885;-80
2023/01/10 08:59:14;;;;;;;;;5.00;5.00;;;;;6.46;100.00;101663.31;5099251;27;45402;-80
2023/01/10 09:01:40;;;;;;;;;7.33;6.00;;;;;6.55;100.00;101669.63;5082635;27;47437;-81
2023/01/10 09:04:05;;;;;;;;;6.00;5.00;;;;;6.60;100.00;101671.91;5101092;27;45394;-82
2023/01/10 09:06:30;;;;;;;;;4.67;4.67;;;;;6.64;100.00;101665.41;5103932;27;45650;-80
2023/01/10 09:08:56;;;;;;;;;8.00;6.00;;;;;6.68;100.00;101661.56;5098147;27;45493;-81
2023/01/10 09:11:21;;;;;;;;;6.67;5.67;;;;;6.76;100.00;101656.47;5100996;27;48047;-80
2023/01/10 09:13:49;;;;;;;;;8.00;5.33;;;;;6.84;100.00;101668.22;5103104;27;45397;-80
2023/01/10 09:16:15;;;;;;;;;4.00;4.00;;;;;6.94;100.00;101669.97;5103150;27;45412;-80
2023/01/10 09:18:41;;;;;;;;;4.67;4.33;;;;;7.03;100.00;101673.66;5104045;27;45279;-82
2023/01/10 09:21:06;;;;;;;;;9.00;8.33;;;;;7.06;100.00;101659.34;5100722;27;45513;-81
2023/01/10 09:23:31;;;;;;;;;6.00;4.67;;;;;7.07;100.00;101648.63;5080345;28;45500;-80
2023/01/10 09:25:59;;;;;;;;;6.00;6.00;;;;;7.19;100.00;101664.47;5091391;27;45231;-80
2023/01/10 09:28:25;;;;;;;;;8.00;8.00;;;;;7.18;100.00;101647.75;5101373;27;46063;-80
2023/01/10 09:30:51;;;;;;;;;8.00;6.00;;;;;7.18;100.00;101642.47;5104609;27;46054;-80
2023/01/10 09:33:16;;;;;;;;;5.67;5.67;;;;;7.22;100.00;101632.47;5104949;27;45332;-80
2023/01/10 09:35:42;;;;;;;;;5.00;5.00;;;;;7.40;100.00;101656.53;5105473;27;45965;-82
2023/01/10 09:38:17;;;;;;;;;5.33;4.67;;;;;7.40;100.00;101669.75;5109315;27;46310;-81
2023/01/10 09:40:59;;;;;;;;;7.33;5.67;;;;;7.43;100.00;101660.72;5100424;27;45293;-80
2023/01/10 09:43:52;;;;;;;;;4.67;4.00;;;;;7.42;100.00;101657.22;5110876;27;45572;-80
2023/01/10 09:46:25;;;;;;;;;6.00;6.00;;;;;7.47;100.00;101661.25;5114332;27;45639;-79
2023/01/10 09:49:13;;;;;;;;;4.00;3.00;;;;;7.47;100.00;101640.94;5105163;27;45329;-79
2023/01/10 09:51:44;;;;;;;;;6.00;5.00;;;;;7.59;100.00;101649.63;5121698;27;47409;-81
2023/01/10 09:54:16;;;;;;;;;6.00;6.00;;;;;7.69;100.00;101652.31;5121331;27;46195;-80
2023/01/10 09:56:43;;;;;;;;;5.00;4.67;;;;;7.72;100.00;101652.06;5105102;27;45396;-82
2023/01/10 09:59:17;;;;;;;;;5.67;5.33;;;;;7.64;100.00;101630.72;5105982;27;45313;-81
2023/01/10 10:01:45;;;;;;;;;4.67;4.67;;;;;7.67;100.00;101639.22;5121030;27;47369;-79
2023/01/10 10:04:45;;;;;;;;;7.67;6.00;;;;;7.75;100.00;101648.31;5105204;27;45287;-80
2023/01/10 10:07:13;;;;;;;;;6.67;6.67;;;;;7.75;100.00;101643.03;5095486;27;45407;-81
2023/01/10 10:09:40;;;;;;;;;4.00;4.00;;;;;7.72;100.00;101651.25;5098316;27;46268;-80
2023/01/10 10:12:28;;;;;;;;;6.67;5.67;;;;;7.76;100.00;101655.28;5090437;27;48518;-79
2023/01/10 10:15:00;;;;;;;;;6.00;6.00;;;;;7.74;100.00;101657.22;5061631;28;45345;-79
2023/01/10 10:17:40;;;;;;;;;4.67;3.33;;;;;7.78;100.00;101651.53;5085371;27;45311;-81
2023/01/10 10:20:18;;;;;;;;;4.33;4.33;;;;;7.80;100.00;101651.41;5100465;27;46897;-81
2023/01/10 10:23:28;;;;;;;;;4.67;4.67;;;;;7.76;100.00;101639.41;5097970;27;46376;-80
2023/01/10 10:26:12;;;;;;;;;8.00;5.67;;;;;7.84;100.00;101652.78;5101097;27;45323;-79
2023/01/10 10:28:56;;;;;;;;;6.00;6.00;;;;;7.86;100.00;101650.88;5086647;27;45384;-80
2023/01/10 10:31:46;;;;;;;;;7.67;6.00;;;;;7.85;100.00;101648.34;5104304;27;45251;-80
2023/01/10 10:34:17;;;;;;;;;5.33;4.00;;;;;7.82;100.00;101629.09;5086933;27;47089;-79
2023/01/10 10:37:10;;;;;;;;;10.00;8.00;;;;;7.82;100.00;101637.06;5104488;27;45161;-79
2023/01/10 10:39:48;;;;;;;;;5.33;5.00;;;;;7.82;100.00;101629.09;5103775;27;45258;-81
2023/01/10 10:42:16;;;;;;;;;5.00;5.00;;;;;7.88;100.00;101638.34;5103504;27;45454;-81
2023/01/10 10:45:18;;;;;;;;;12.33;10.33;;;;;7.92;100.00;101629.16;5086199;27;47405;-81
2023/01/10 10:47:49;;;;;;;;;4.33;4.33;;;;;7.94;100.00;101626.38;5106453;27;45396;-79
2023/01/10 10:50:14;;;;;;;;;8.33;6.00;;;;;7.96;100.00;101624.41;5104514;27;45424;-79
2023/01/10 10:52:41;;;;;;;;;9.67;7.67;;;;;7.99;100.00;101615.38;5098380;27;45346;-79
2023/01/10 10:55:13;;;;;;;;;8.67;8.67;;;;;7.97;100.00;101597.00;5084163;27;47258;-80
2023/01/10 10:57:40;;;;;;;;;11.67;9.33;;;;;7.92;100.00;101602.69;5089180;27;46138;-80
2023/01/10 11:00:07;;;;;;;;;8.67;5.00;;;;;8.01;100.00;101610.78;5105485;27;45210;-80
2023/01/10 11:02:52;;;;;;;;;6.00;4.67;;;;;7.93;100.00;101585.00;5085101;27;47280;-79
2023/01/10 11:05:26;;;;;;;;;8.67;6.33;;;;;8.00;100.00;101593.22;5084899;27;47407;-79
2023/01/10 11:08:04;;;;;;;;;6.67;5.00;;;;;8.01;100.00;101573.72;5084324;27;45271;-79
2023/01/10 11:10:35;;;;;;;;;6.00;6.00;;;;;7.92;100.00;101565.63;5101576;27;45376;-79
2023/01/10 11:13:04;;;;;;;;;10.67;7.33;;;;;7.99;100.00;101573.84;5099711;27;46121;-79
2023/01/10 11:15:42;;;;;;;;;4.00;4.00;;;;;7.90;100.00;101549.03;5081716;27;48367;-79
2023/01/10 11:18:19;;;;;;;;;10.00;5.00;;;;;7.90;100.00;101549.03;5082529;27;45371;-79
2023/01/10 11:20:59;;;;;;;;;5.33;5.00;;;;;7.88;100.00;101553.66;5097268;27;45519;-78
2023/01/10 11:23:39;;;;;;;;;5.00;5.00;;;;;8.00;100.00;101545.56;5082289;27;46355;-79
2023/01/10 11:26:08;;;;;;;;;6.00;6.00;;;;;8.03;100.00;101545.31;5083797;27;48421;-79
2023/01/10 11:28:35;;;;;;;;;5.67;5.00;;;;;8.04;100.00;101523.97;5104426;27;45354;-78
2023/01/10 11:31:02;;;;;;;;;5.67;4.33;;;;;8.00;100.00;101509.34;5082382;27;45382;-79
2023/01/10 11:33:38;;;;;;;;;4.00;4.00;;;;;8.07;100.00;101510.47;5083885;27;47304;-79
2023/01/10 11:36:05;;;;;;;;;8.67;5.00;;;;;8.10;100.00;101504.06;5099774;27;46234;-76
2023/01/10 11:38:31;;;;;;;;;8.33;6.00;;;;;8.04;100.00;101492.22;5082488;27;45904;-79
2023/01/10 11:41:03;;;;;;;;;7.33;6.00;;;;;8.18;100.00;101492.78;5098289;27;45309;-77